Ardmore Cherokee — V7HR9 — position and weather

sailwx.info

Track history (hours):
 
Tides and Currents Weather Stations Pressure Air Temp Water Temp Dewpoint Dewpoint Depression Visibility Wind Speed Wind Dir Waves Ship Positions

Ardmore Cherokee

Last reported at 2017-Oct-03 04:29 UTC. Time now 2017-Oct-17 20:36 UTC.
Position N 01°13' E 103°29'.
Warning: this ship's position is 14 days out of date.

Length 159 m; draft 8.9 m.

Type: Ship. MMSI: 538005865.

Date/timePositionNaut miles runAvg speedWind from/ knotsBaromVisibWave heightAir tempDewpointWater temp
2017-Oct-03 04:29N 01°13' E 103°29'711.4
2017-Oct-03 03:50N 01°12' E 103°36'3 8.5
2017-Oct-03 03:31N 01°12' E 103°39'2 3.5
2017-Oct-03 03:01N 01°14' E 103°39'0 0.0
2017-Oct-03 02:28N 01°14' E 103°39'0 0.1
2017-Oct-03 01:58N 01°14' E 103°39'0 0.0
2017-Oct-03 01:28N 01°14' E 103°39'0 0.1
2017-Oct-03 00:58N 01°14' E 103°39'0 0.0
2017-Oct-03 00:31N 01°14' E 103°39'0 0.1
2017-Oct-02 23:49N 01°14' E 103°39'0 0.1
2017-Oct-02 23:16N 01°14' E 103°39'0 0.2
2017-Oct-02 22:58N 01°14' E 103°39'0 0.0
2017-Oct-02 22:22N 01°14' E 103°39'0 0.0
2017-Oct-02 21:58N 01°14' E 103°39'0 0.1
2017-Oct-02 21:31N 01°14' E 103°39'0 0.1
2017-Oct-02 21:01N 01°14' E 103°39'0 0.0
2017-Oct-02 20:28N 01°14' E 103°39'0 0.0
2017-Oct-02 19:58N 01°14' E 103°39'0 0.1
2017-Oct-02 19:31N 01°14' E 103°39'0 0.1
2017-Oct-02 19:01N 01°14' E 103°39'0 0.3
2017-Oct-02 18:30N 01°14' E 103°39'3 5.2
2017-Oct-02 18:00N 01°11' E 103°40'510.3
2017-Oct-02 17:30N 01°09' E 103°44'4 8.6
2017-Oct-02 17:00N 01°10' E 103°48'5 9.3
2017-Oct-02 16:30N 01°12' E 103°52'5 9.4
2017-Oct-02 16:00N 01°14' E 103°56'  
2017-Sep-25 05:43N 33°56' E 134°54'415.7
2017-Sep-25 05:27N 34°00' E 134°55'614.7
2017-Sep-25 05:00N 34°07' E 134°56'613.0
2017-Sep-25 04:30N 34°13' E 134°58'611.5
2017-Sep-25 04:00N 34°19' E 134°59'713.7
2017-Sep-25 03:30N 34°25' E 135°03'714.9
2017-Sep-25 03:00N 34°29' E 135°10'714.4
2017-Sep-25 02:30N 34°34' E 135°17'612.5
2017-Sep-25 02:00N 34°38' E 135°23'4 7.5
2017-Sep-25 01:30N 34°40' E 135°27'0 0.0
2017-Sep-24 19:04N 34°40' E 135°27'0 0.0
2017-Sep-24 17:40N 34°40' E 135°27'0 0.0
2017-Sep-24 17:16N 34°40' E 135°27'0 0.0
2017-Sep-24 16:58N 34°40' E 135°27'0 0.0
2017-Sep-24 16:16N 34°40' E 135°27'0 0.0
2017-Sep-24 13:58N 34°40' E 135°27'0 0.0
2017-Sep-24 11:34N 34°40' E 135°27'0 0.0
2017-Sep-24 09:22N 34°40' E 135°27'0 0.0
2017-Sep-23 22:30N 34°40' E 135°27'2 3.6
2017-Sep-23 22:00N 34°39' E 135°25'510.5
2017-Sep-23 21:30N 34°36' E 135°20'1 1.0
2017-Sep-23 20:51N 34°36' E 135°19'0 0.0
2017-Sep-23 20:21N 34°36' E 135°19'0 0.0
2017-Sep-23 19:45N 34°36' E 135°19'  
Track history (hours):
 
Tides and Currents Weather Stations Pressure Air Temp Water Temp Dewpoint Dewpoint Depression Visibility Wind Speed Wind Dir Waves Ship Positions

Ardmore Cherokee

Last reported at 2017-Oct-03 04:29 UTC. Time now 2017-Oct-17 20:36 UTC.
Position N 01°13' E 103°29'.
Warning: this ship's position is 14 days out of date.

Length 159 m; draft 8.9 m.

Type: Ship. MMSI: 538005865.

Date/timePositionNaut miles runAvg speedWind from/ knotsBaromVisibWave heightAir tempDewpointWater temp
2017-Oct-03 04:29N 01°13' E 103°29'711.4
2017-Oct-03 03:50N 01°12' E 103°36'3 8.5
2017-Oct-03 03:31N 01°12' E 103°39'2 3.5
2017-Oct-03 03:01N 01°14' E 103°39'0 0.0
2017-Oct-03 02:28N 01°14' E 103°39'0 0.1
2017-Oct-03 01:58N 01°14' E 103°39'0 0.0
2017-Oct-03 01:28N 01°14' E 103°39'0 0.1
2017-Oct-03 00:58N 01°14' E 103°39'0 0.0
2017-Oct-03 00:31N 01°14' E 103°39'0 0.1
2017-Oct-02 23:49N 01°14' E 103°39'0 0.1
2017-Oct-02 23:16N 01°14' E 103°39'0 0.2
2017-Oct-02 22:58N 01°14' E 103°39'0 0.0
2017-Oct-02 22:22N 01°14' E 103°39'0 0.0
2017-Oct-02 21:58N 01°14' E 103°39'0 0.1
2017-Oct-02 21:31N 01°14' E 103°39'0 0.1
2017-Oct-02 21:01N 01°14' E 103°39'0 0.0
2017-Oct-02 20:28N 01°14' E 103°39'0 0.0
2017-Oct-02 19:58N 01°14' E 103°39'0 0.1
2017-Oct-02 19:31N 01°14' E 103°39'0 0.1
2017-Oct-02 19:01N 01°14' E 103°39'0 0.3
2017-Oct-02 18:30N 01°14' E 103°39'3 5.2
2017-Oct-02 18:00N 01°11' E 103°40'510.3
2017-Oct-02 17:30N 01°09' E 103°44'4 8.6
2017-Oct-02 17:00N 01°10' E 103°48'5 9.3
2017-Oct-02 16:30N 01°12' E 103°52'5 9.4
2017-Oct-02 16:00N 01°14' E 103°56'  
2017-Sep-25 05:43N 33°56' E 134°54'415.7
2017-Sep-25 05:27N 34°00' E 134°55'614.7
2017-Sep-25 05:00N 34°07' E 134°56'613.0
2017-Sep-25 04:30N 34°13' E 134°58'611.5
2017-Sep-25 04:00N 34°19' E 134°59'713.7
2017-Sep-25 03:30N 34°25' E 135°03'714.9
2017-Sep-25 03:00N 34°29' E 135°10'714.4
2017-Sep-25 02:30N 34°34' E 135°17'612.5
2017-Sep-25 02:00N 34°38' E 135°23'4 7.5
2017-Sep-25 01:30N 34°40' E 135°27'0 0.0
2017-Sep-24 19:04N 34°40' E 135°27'0 0.0
2017-Sep-24 17:40N 34°40' E 135°27'0 0.0
2017-Sep-24 17:16N 34°40' E 135°27'0 0.0
2017-Sep-24 16:58N 34°40' E 135°27'0 0.0
2017-Sep-24 16:16N 34°40' E 135°27'0 0.0
2017-Sep-24 13:58N 34°40' E 135°27'0 0.0
2017-Sep-24 11:34N 34°40' E 135°27'0 0.0
2017-Sep-24 09:22N 34°40' E 135°27'0 0.0
2017-Sep-23 22:30N 34°40' E 135°27'2 3.6
2017-Sep-23 22:00N 34°39' E 135°25'510.5
2017-Sep-23 21:30N 34°36' E 135°20'1 1.0
2017-Sep-23 20:51N 34°36' E 135°19'0 0.0
2017-Sep-23 20:21N 34°36' E 135°19'0 0.0
2017-Sep-23 19:45N 34°36' E 135°19'  

Dump ship's entire track history